sensor_id;sensor_type;location;lat;lon;timestamp;pressure;altitude;pressure_sealevel;temperature;humidity
3082;BME280;1551;51.046;7.010;2023-04-01T00:00:11;98779.56;;;11.86;78.39
3082;BME280;1551;51.046;7.010;2023-04-01T00:03:04;98767.34;;;11.91;78.51
3082;BME280;1551;51.046;7.010;2023-04-01T00:05:54;98785.91;;;11.96;78.53
3082;BME280;1551;51.046;7.010;2023-04-01T00:08:44;98768.59;;;12.01;77.83
3082;BME280;1551;51.046;7.010;2023-04-01T00:11:33;98798.53;;;12.01;77.80
3082;BME280;1551;51.046;7.010;2023-04-01T00:14:22;98768.69;;;12.00;77.14
3082;BME280;1551;51.046;7.010;2023-04-01T00:17:11;98767.91;;;11.98;77.11
3082;BME280;1551;51.046;7.010;2023-04-01T00:20:01;98772.75;;;12.04;76.51
3082;BME280;1551;51.046;7.010;2023-04-01T00:22:51;98779.59;;;12.03;76.85
3082;BME280;1551;51.046;7.010;2023-04-01T00:25:40;98778.50;;;12.09;76.94
3082;BME280;1551;51.046;7.010;2023-04-01T00:28:29;98776.03;;;12.07;76.81
3082;BME280;1551;51.046;7.010;2023-04-01T00:31:19;98780.22;;;12.08;76.70
3082;BME280;1551;51.046;7.010;2023-04-01T00:34:08;98775.81;;;12.12;76.51
3082;BME280;1551;51.046;7.010;2023-04-01T00:36:57;98778.19;;;12.15;76.18
3082;BME280;1551;51.046;7.010;2023-04-01T00:39:46;98769.75;;;12.13;76.51
3082;BME280;1551;51.046;7.010;2023-04-01T00:42:35;98764.72;;;12.11;76.01
3082;BME280;1551;51.046;7.010;2023-04-01T00:45:38;98758.13;;;12.06;76.17
3082;BME280;1551;51.046;7.010;2023-04-01T00:48:45;98746.63;;;11.96;76.03
3082;BME280;1551;51.046;7.010;2023-04-01T00:51:37;98765.75;;;12.07;76.53
3082;BME280;1551;51.046;7.010;2023-04-01T00:54:30;98769.84;;;12.11;76.47
3082;BME280;1551;51.046;7.010;2023-04-01T00:57:25;98785.50;;;12.05;76.15
3082;BME280;1551;51.046;7.010;2023-04-01T01:00:17;98764.00;;;12.08;76.56
3082;BME280;1551;51.046;7.010;2023-04-01T01:03:06;98774.22;;;12.09;76.31
3082;BME280;1551;51.046;7.010;2023-04-01T01:27:28;98744.53;;;12.04;78.07
3082;BME280;1551;51.046;7.010;2023-04-01T01:30:25;98772.53;;;12.08;77.93
3082;BME280;1551;51.046;7.010;2023-04-01T01:36:20;98741.44;;;11.97;78.12
3082;BME280;1551;51.046;7.010;2023-04-01T01:39:11;98754.28;;;11.97;78.30
3082;BME280;1551;51.046;7.010;2023-04-01T01:42:04;98735.41;;;11.98;78.27
3082;BME280;1551;51.046;7.010;2023-04-01T01:44:56;98753.28;;;12.00;77.99
3082;BME280;1551;51.046;7.010;2023-04-01T01:47:49;98747.31;;;11.99;77.91
3082;BME280;1551;51.046;7.010;2023-04-01T01:50:40;98752.75;;;11.93;77.89
3082;BME280;1551;51.046;7.010;2023-04-01T01:53:32;98741.66;;;11.93;77.52
3082;BME280;1551;51.046;7.010;2023-04-01T01:56:26;98750.97;;;11.77;78.51
3082;BME280;1551;51.046;7.010;2023-04-01T01:59:17;98737.84;;;11.64;79.32
3082;BME280;1551;51.046;7.010;2023-04-01T02:02:10;98752.31;;;11.65;79.25
3082;BME280;1551;51.046;7.010;2023-04-01T02:05:04;98767.06;;;11.60;80.34
3082;BME280;1551;51.046;7.010;2023-04-01T02:08:26;98756.88;;;11.58;80.71
3082;BME280;1551;51.046;7.010;2023-04-01T02:11:18;98749.13;;;11.60;80.61
3082;BME280;1551;51.046;7.010;2023-04-01T02:14:16;98743.25;;;11.58;81.48
3082;BME280;1551;51.046;7.010;2023-04-01T02:17:12;98758.03;;;11.51;82.05
3082;BME280;1551;51.046;7.010;2023-04-01T02:20:21;98768.66;;;11.44;81.76
3082;BME280;1551;51.046;7.010;2023-04-01T02:23:11;98759.50;;;11.38;81.99
3082;BME280;1551;51.046;7.010;2023-04-01T02:26:02;98755.25;;;11.37;82.68
3082;BME280;1551;51.046;7.010;2023-04-01T02:28:54;98752.22;;;11.29;82.14
3082;BME280;1551;51.046;7.010;2023-04-01T02:31:45;98749.72;;;11.28;82.83
3082;BME280;1551;51.046;7.010;2023-04-01T02:34:34;98746.47;;;11.24;82.95
3082;BME280;1551;51.046;7.010;2023-04-01T02:37:24;98751.09;;;11.16;83.90
3082;BME280;1551;51.046;7.010;2023-04-01T02:40:14;98749.50;;;11.14;83.88
3082;BME280;1551;51.046;7.010;2023-04-01T02:43:03;98747.09;;;11.11;84.60
3082;BME280;1551;51.046;7.010;2023-04-01T02:45:52;98756.81;;;11.02;84.40
3082;BME280;1551;51.046;7.010;2023-04-01T02:48:41;98749.19;;;11.01;85.04
3082;BME280;1551;51.046;7.010;2023-04-01T02:51:32;98745.88;;;10.99;86.20
3082;BME280;1551;51.046;7.010;2023-04-01T02:54:21;98749.41;;;10.96;86.32
3082;BME280;1551;51.046;7.010;2023-04-01T02:57:10;98745.03;;;10.98;87.09
3082;BME280;1551;51.046;7.010;2023-04-01T02:59:59;98745.44;;;10.89;86.71
3082;BME280;1551;51.046;7.010;2023-04-01T03:02:47;98749.72;;;10.89;87.54
3082;BME280;1551;51.046;7.010;2023-04-01T03:05:37;98751.19;;;10.94;88.38
3082;BME280;1551;51.046;7.010;2023-04-01T03:08:26;98740.97;;;10.94;88.79
3082;BME280;1551;51.046;7.010;2023-04-01T03:11:16;98752.00;;;10.95;88.91
3082;BME280;1551;51.046;7.010;2023-04-01T03:14:05;98756.94;;;10.99;88.58
3082;BME280;1551;51.046;7.010;2023-04-01T03:16:55;98751.13;;;10.96;89.29
3082;BME280;1551;51.046;7.010;2023-04-01T03:19:44;98745.38;;;10.91;89.22
3082;BME280;1551;51.046;7.010;2023-04-01T03:22:35;98750.34;;;10.94;89.18
3082;BME280;1551;51.046;7.010;2023-04-01T03:25:24;98746.06;;;10.94;88.94
3082;BME280;1551;51.046;7.010;2023-04-01T03:28:14;98758.72;;;10.97;89.60
3082;BME280;1551;51.046;7.010;2023-04-01T03:31:03;98751.03;;;10.97;88.84
3082;BME280;1551;51.046;7.010;2023-04-01T03:33:59;98762.13;;;10.98;88.58
3082;BME280;1551;51.046;7.010;2023-04-01T03:36:50;98753.47;;;11.00;88.60
3082;BME280;1551;51.046;7.010;2023-04-01T03:39:40;98761.88;;;11.04;88.48
3082;BME280;1551;51.046;7.010;2023-04-01T03:42:30;98768.66;;;11.05;88.38
3082;BME280;1551;51.046;7.010;2023-04-01T03:45:20;98763.53;;;11.05;88.16
3082;BME280;1551;51.046;7.010;2023-04-01T03:48:09;98756.75;;;11.04;88.09
3082;BME280;1551;51.046;7.010;2023-04-01T03:50:58;98765.19;;;11.06;88.38
3082;BME280;1551;51.046;7.010;2023-04-01T03:53:48;98776.25;;;11.06;87.57
3082;BME280;1551;51.046;7.010;2023-04-01T03:56:37;98766.81;;;11.09;87.25
3082;BME280;1551;51.046;7.010;2023-04-01T03:59:27;98773.75;;;11.05;87.80
3082;BME280;1551;51.046;7.010;2023-04-01T04:02:17;98775.69;;;11.00;87.51
3082;BME280;1551;51.046;7.010;2023-04-01T04:05:06;98773.97;;;11.00;87.85
3082;BME280;1551;51.046;7.010;2023-04-01T04:07:56;98771.53;;;10.97;88.09
3082;BME280;1551;51.046;7.010;2023-04-01T04:10:44;98775.00;;;10.96;88.43
3082;BME280;1551;51.046;7.010;2023-04-01T04:13:35;98780.03;;;10.98;89.03
3082;BME280;1551;51.046;7.010;2023-04-01T04:16:24;98776.41;;;11.03;88.60
3082;BME280;1551;51.046;7.010;2023-04-01T04:19:19;98785.09;;;10.99;88.20
3082;BME280;1551;51.046;7.010;2023-04-01T04:22:08;98778.97;;;11.03;88.78
3082;BME280;1551;51.046;7.010;2023-04-01T04:24:57;98780.59;;;11.04;88.98
3082;BME280;1551;51.046;7.010;2023-04-01T04:27:46;98787.63;;;10.99;88.18
3082;BME280;1551;51.046;7.010;2023-04-01T04:30:37;98776.84;;;10.93;88.78
3082;BME280;1551;51.046;7.010;2023-04-01T04:33:27;98788.00;;;10.92;89.25
3082;BME280;1551;51.046;7.010;2023-04-01T04:36:17;98774.34;;;10.91;89.54
3082;BME280;1551;51.046;7.010;2023-04-01T04:39:06;98777.88;;;10.89;89.34
3082;BME280;1551;51.046;7.010;2023-04-01T04:41:57;98772.56;;;10.93;89.63
3082;BME280;1551;51.046;7.010;2023-04-01T04:44:46;98778.38;;;10.97;89.95
3082;BME280;1551;51.046;7.010;2023-04-01T04:47:35;98777.59;;;10.95;89.38
3082;BME280;1551;51.046;7.010;2023-04-01T04:50:24;98775.13;;;10.93;89.87
3082;BME280;1551;51.046;7.010;2023-04-01T04:53:15;98778.59;;;10.92;90.03
3082;BME280;1551;51.046;7.010;2023-04-01T04:56:04;98780.34;;;10.90;89.55
3082;BME280;1551;51.046;7.010;2023-04-01T04:59:01;98786.38;;;10.89;90.46
3082;BME280;1551;51.046;7.010;2023-04-01T05:02:02;98789.00;;;10.88;89.73
3082;BME280;1551;51.046;7.010;2023-04-01T05:04:52;98788.28;;;10.84;90.25
3082;BME280;1551;51.046;7.010;2023-04-01T05:07:41;98794.28;;;10.83;91.04
3082;BME280;1551;51.046;7.010;2023-04-01T05:10:30;98794.56;;;10.77;91.10
3082;BME280;1551;51.046;7.010;2023-04-01T05:13:20;98789.25;;;10.82;90.83
3082;BME280;1551;51.046;7.010;2023-04-01T05:16:15;98794.69;;;10.74;91.43
3082;BME280;1551;51.046;7.010;2023-04-01T05:19:05;98799.75;;;10.76;91.69
3082;BME280;1551;51.046;7.010;2023-04-01T05:21:54;98801.50;;;10.74;92.09
3082;BME280;1551;51.046;7.010;2023-04-01T05:24:43;98801.50;;;10.74;92.32
3082;BME280;1551;51.046;7.010;2023-04-01T05:27:33;98810.09;;;10.73;92.40
3082;BME280;1551;51.046;7.010;2023-04-01T05:30:23;98811.72;;;10.75;92.49
3082;BME280;1551;51.046;7.010;2023-04-01T05:33:21;98810.75;;;10.78;93.30
3082;BME280;1551;51.046;7.010;2023-04-01T05:36:13;98808.31;;;10.75;92.88
3082;BME280;1551;51.046;7.010;2023-04-01T05:39:03;98816.72;;;10.78;93.30
3082;BME280;1551;51.046;7.010;2023-04-01T05:41:52;98809.84;;;10.79;93.63
3082;BME280;1551;51.046;7.010;2023-04-01T05:44:42;98818.94;;;10.86;94.09
3082;BME280;1551;51.046;7.010;2023-04-01T05:47:31;98817.47;;;10.80;93.57
3082;BME280;1551;51.046;7.010;2023-04-01T05:50:19;98822.44;;;10.83;93.89
3082;BME280;1551;51.046;7.010;2023-04-01T05:53:09;98824.56;;;10.94;94.24
3082;BME280;1551;51.046;7.010;2023-04-01T05:56:03;98824.47;;;10.97;94.10
3082;BME280;1551;51.046;7.010;2023-04-01T05:58:54;98827.13;;;10.94;94.55
3082;BME280;1551;51.046;7.010;2023-04-01T06:01:45;98833.28;;;10.90;94.52
3082;BME280;1551;51.046;7.010;2023-04-01T06:04:38;98827.53;;;10.85;94.99
3082;BME280;1551;51.046;7.010;2023-04-01T06:07:28;98827.56;;;10.83;94.82
3082;BME280;1551;51.046;7.010;2023-04-01T06:10:19;98837.25;;;10.97;95.06
3082;BME280;1551;51.046;7.010;2023-04-01T06:13:31;98839.75;;;10.98;95.02
3082;BME280;1551;51.046;7.010;2023-04-01T06:22:39;98850.47;;;11.06;95.05
3082;BME280;1551;51.046;7.010;2023-04-01T06:54:49;98854.91;;;11.23;94.46
3082;BME280;1551;51.046;7.010;2023-04-01T06:58:00;98856.94;;;11.35;93.95
3082;BME280;1551;51.046;7.010;2023-04-01T07:00:56;98862.38;;;11.28;93.67
3082;BME280;1551;51.046;7.010;2023-04-01T07:03:55;98869.47;;;11.23;93.76
3082;BME280;1551;51.046;7.010;2023-04-01T07:06:58;98861.38;;;11.32;94.41
3082;BME280;1551;51.046;7.010;2023-04-01T07:09:51;98870.88;;;11.30;93.54
3082;BME280;1551;51.046;7.010;2023-04-01T07:12:56;98871.88;;;11.26;93.89
3082;BME280;1551;51.046;7.010;2023-04-01T07:16:17;98873.78;;;11.21;93.23
3082;BME280;1551;51.046;7.010;2023-04-01T07:19:29;98877.44;;;11.15;93.71
3082;BME280;1551;51.046;7.010;2023-04-01T07:22:35;98873.97;;;11.16;94.27
3082;BME280;1551;51.046;7.010;2023-04-01T07:26:17;98882.81;;;11.29;94.70
3082;BME280;1551;51.046;7.010;2023-04-01T07:29:26;98888.72;;;11.31;94.31
3082;BME280;1551;51.046;7.010;2023-04-01T07:32:42;98892.03;;;11.33;94.57
3082;BME280;1551;51.046;7.010;2023-04-01T07:48:26;98905.09;;;11.47;94.42
3082;BME280;1551;51.046;7.010;2023-04-01T07:51:47;98898.84;;;11.34;94.85
3082;BME280;1551;51.046;7.010;2023-04-01T07:57:43;98917.44;;;11.38;94.91
3082;BME280;1551;51.046;7.010;2023-04-01T08:07:17;98933.13;;;11.30;95.19
3082;BME280;1551;51.046;7.010;2023-04-01T08:10:37;98932.91;;;11.36;95.20
3082;BME280;1551;51.046;7.010;2023-04-01T08:14:04;98929.41;;;11.37;94.86
3082;BME280;1551;51.046;7.010;2023-04-01T08:20:50;98954.34;;;11.34;95.06
3082;BME280;1551;51.046;7.010;2023-04-01T08:23:44;98940.78;;;11.32;95.69
3082;BME280;1551;51.046;7.010;2023-04-01T08:26:44;98958.41;;;11.18;94.82
3082;BME280;1551;51.046;7.010;2023-04-01T08:29:41;98943.53;;;11.05;95.75
3082;BME280;1551;51.046;7.010;2023-04-01T08:32:37;98956.69;;;11.18;95.72
3082;BME280;1551;51.046;7.010;2023-04-01T08:35:33;98952.00;;;11.28;95.81
3082;BME280;1551;51.046;7.010;2023-04-01T08:38:44;98970.84;;;11.27;96.03
3082;BME280;1551;51.046;7.010;2023-04-01T08:45:23;98965.47;;;11.33;95.62
3082;BME280;1551;51.046;7.010;2023-04-01T08:48:28;98966.13;;;11.38;95.46
3082;BME280;1551;51.046;7.010;2023-04-01T08:51:48;98970.06;;;11.46;96.24
3082;BME280;1551;51.046;7.010;2023-04-01T09:28:08;99023.47;;;11.55;94.97
3082;BME280;1551;51.046;7.010;2023-04-01T09:34:25;99024.25;;;11.78;94.91
3082;BME280;1551;51.046;7.010;2023-04-01T09:40:34;99031.53;;;11.66;94.54
3082;BME280;1551;51.046;7.010;2023-04-01T09:43:49;99027.97;;;11.70;94.66
3082;BME280;1551;51.046;7.010;2023-04-01T09:59:42;99048.34;;;11.73;94.48
3082;BME280;1551;51.046;7.010;2023-04-01T10:06:41;99062.22;;;11.69;94.85
3082;BME280;1551;51.046;7.010;2023-04-01T10:19:53;99066.56;;;11.66;94.87
3082;BME280;1551;51.046;7.010;2023-04-01T10:29:02;99085.13;;;11.72;93.78
3082;BME280;1551;51.046;7.010;2023-04-01T10:32:29;99081.94;;;11.66;94.28
3082;BME280;1551;51.046;7.010;2023-04-01T10:41:42;99090.97;;;11.76;94.29
3082;BME280;1551;51.046;7.010;2023-04-01T10:49:01;99091.28;;;11.89;94.59
3082;BME280;1551;51.046;7.010;2023-04-01T11:06:09;99102.47;;;11.88;94.58
3082;BME280;1551;51.046;7.010;2023-04-01T11:15:40;99106.75;;;11.87;94.54
3082;BME280;1551;51.046;7.010;2023-04-01T11:22:15;99113.59;;;11.87;93.50
3082;BME280;1551;51.046;7.010;2023-04-01T11:26:04;99120.31;;;11.89;94.38
3082;BME280;1551;51.046;7.010;2023-04-01T11:32:50;99119.34;;;11.93;94.20
3082;BME280;1551;51.046;7.010;2023-04-01T11:39:22;99136.72;;;12.07;93.93
3082;BME280;1551;51.046;7.010;2023-04-01T11:43:11;99128.75;;;12.13;93.73
3082;BME280;1551;51.046;7.010;2023-04-01T11:46:33;99123.63;;;11.93;93.07
3082;BME280;1551;51.046;7.010;2023-04-01T11:59:13;99145.63;;;12.38;92.34
3082;BME280;1551;51.046;7.010;2023-04-01T12:08:33;99170.13;;;12.66;91.00
3082;BME280;1551;51.046;7.010;2023-04-01T12:18:16;99171.34;;;12.77;89.72
3082;BME280;1551;51.046;7.010;2023-04-01T12:21:36;99171.53;;;12.73;88.67
3082;BME280;1551;51.046;7.010;2023-04-01T12:24:46;99176.72;;;12.51;89.09
3082;BME280;1551;51.046;7.010;2023-04-01T12:27:49;99195.00;;;12.64;88.98
3082;BME280;1551;51.046;7.010;2023-04-01T12:30:52;99191.72;;;12.80;88.40
3082;BME280;1551;51.046;7.010;2023-04-01T12:34:25;99190.09;;;12.98;87.56
3082;BME280;1551;51.046;7.010;2023-04-01T12:44:20;99199.25;;;12.65;87.34
3082;BME280;1551;51.046;7.010;2023-04-01T12:56:47;99207.59;;;12.70;87.20
3082;BME280;1551;51.046;7.010;2023-04-01T13:06:22;99214.44;;;12.69;87.60
3082;BME280;1551;51.046;7.010;2023-04-01T13:09:28;99222.28;;;12.66;87.74
3082;BME280;1551;51.046;7.010;2023-04-01T13:15:58;99229.94;;;12.68;88.62
3082;BME280;1551;51.046;7.010;2023-04-01T13:19:00;99228.25;;;12.67;88.08
3082;BME280;1551;51.046;7.010;2023-04-01T13:22:15;99226.25;;;12.53;88.39
3082;BME280;1551;51.046;7.010;2023-04-01T13:28:41;99231.38;;;12.53;89.19
3082;BME280;1551;51.046;7.010;2023-04-01T13:41:00;99240.16;;;12.48;89.67
3082;BME280;1551;51.046;7.010;2023-04-01T13:44:00;99249.09;;;12.39;89.80
3082;BME280;1551;51.046;7.010;2023-04-01T13:47:17;99247.72;;;12.30;90.79
3082;BME280;1551;51.046;7.010;2023-04-01T13:53:39;99252.22;;;12.46;91.00
3082;BME280;1551;51.046;7.010;2023-04-01T13:56:45;99254.75;;;12.47;91.38
3082;BME280;1551;51.046;7.010;2023-04-01T14:06:34;99270.22;;;12.66;91.70
3082;BME280;1551;51.046;7.010;2023-04-01T14:12:40;99278.38;;;12.75;91.61
3082;BME280;1551;51.046;7.010;2023-04-01T14:15:52;99273.28;;;12.74;91.25
3082;BME280;1551;51.046;7.010;2023-04-01T14:19:17;99287.09;;;12.71;90.89
3082;BME280;1551;51.046;7.010;2023-04-01T14:28:35;99289.91;;;12.65;91.42
3082;BME280;1551;51.046;7.010;2023-04-01T14:31:43;99291.25;;;12.54;90.73
3082;BME280;1551;51.046;7.010;2023-04-01T14:41:02;99292.09;;;12.54;91.84
3082;BME280;1551;51.046;7.010;2023-04-01T14:47:31;99295.16;;;12.42;91.52
3082;BME280;1551;51.046;7.010;2023-04-01T14:50:25;99303.66;;;12.42;91.49
3082;BME280;1551;51.046;7.010;2023-04-01T14:53:27;99310.66;;;12.39;91.75
3082;BME280;1551;51.046;7.010;2023-04-01T14:56:44;99311.50;;;12.39;92.01
3082;BME280;1551;51.046;7.010;2023-04-01T14:59:39;99307.91;;;12.22;91.97
3082;BME280;1551;51.046;7.010;2023-04-01T15:02:53;99319.59;;;12.29;93.04
3082;BME280;1551;51.046;7.010;2023-04-01T15:18:47;99337.38;;;12.33;93.87
3082;BME280;1551;51.046;7.010;2023-04-01T15:31:16;99359.94;;;12.47;92.98
3082;BME280;1551;51.046;7.010;2023-04-01T15:34:37;99354.28;;;12.39;93.11
3082;BME280;1551;51.046;7.010;2023-04-01T15:40:34;99359.53;;;12.58;93.08
3082;BME280;1551;51.046;7.010;2023-04-01T15:43:49;99369.09;;;12.54;92.72
3082;BME280;1551;51.046;7.010;2023-04-01T15:46:51;99365.69;;;12.54;92.68
3082;BME280;1551;51.046;7.010;2023-04-01T15:49:57;99374.66;;;12.64;92.60
3082;BME280;1551;51.046;7.010;2023-04-01T15:53:17;99380.34;;;12.50;92.53
3082;BME280;1551;51.046;7.010;2023-04-01T15:56:26;99385.19;;;12.58;92.96
3082;BME280;1551;51.046;7.010;2023-04-01T15:59:44;99388.41;;;12.63;92.51
3082;BME280;1551;51.046;7.010;2023-04-01T16:02:56;99390.56;;;12.52;91.73
3082;BME280;1551;51.046;7.010;2023-04-01T16:21:56;99411.41;;;12.42;90.87
3082;BME280;1551;51.046;7.010;2023-04-01T16:24:52;99413.66;;;12.28;91.35
3082;BME280;1551;51.046;7.010;2023-04-01T16:34:43;99415.13;;;12.12;92.21
3082;BME280;1551;51.046;7.010;2023-04-01T16:37:43;99412.69;;;12.09;92.20
3082;BME280;1551;51.046;7.010;2023-04-01T16:40:47;99421.72;;;12.19;92.82
3082;BME280;1551;51.046;7.010;2023-04-01T16:43:49;99427.75;;;12.18;92.36
3082;BME280;1551;51.046;7.010;2023-04-01T16:46:44;99430.34;;;12.17;92.86
3082;BME280;1551;51.046;7.010;2023-04-01T16:49:44;99433.59;;;12.22;92.71
3082;BME280;1551;51.046;7.010;2023-04-01T16:52:47;99437.84;;;12.23;92.63
3082;BME280;1551;51.046;7.010;2023-04-01T16:55:50;99445.97;;;12.11;92.39
3082;BME280;1551;51.046;7.010;2023-04-01T16:58:57;99448.63;;;12.08;92.74
3082;BME280;1551;51.046;7.010;2023-04-01T17:02:01;99443.81;;;12.00;93.40
3082;BME280;1551;51.046;7.010;2023-04-01T17:05:05;99458.34;;;12.00;93.06
3082;BME280;1551;51.046;7.010;2023-04-01T17:11:18;99472.47;;;11.87;93.52
3082;BME280;1551;51.046;7.010;2023-04-01T17:14:19;99459.63;;;11.88;93.51
3082;BME280;1551;51.046;7.010;2023-04-01T17:23:36;99479.88;;;11.71;94.28
3082;BME280;1551;51.046;7.010;2023-04-01T17:26:42;99479.03;;;11.70;94.43
3082;BME280;1551;51.046;7.010;2023-04-01T17:33:36;99490.13;;;11.71;94.69
3082;BME280;1551;51.046;7.010;2023-04-01T17:45:56;99507.59;;;11.58;95.29
3082;BME280;1551;51.046;7.010;2023-04-01T17:48:57;99521.81;;;11.68;95.96
3082;BME280;1551;51.046;7.010;2023-04-01T17:54:55;99525.44;;;11.61;95.90
3082;BME280;1551;51.046;7.010;2023-04-01T17:58:22;99535.59;;;11.64;96.04
3082;BME280;1551;51.046;7.010;2023-04-01T18:01:35;99538.16;;;11.64;95.80
3082;BME280;1551;51.046;7.010;2023-04-01T18:08:05;99547.44;;;11.68;96.06
3082;BME280;1551;51.046;7.010;2023-04-01T18:14:35;99553.19;;;11.75;96.00
3082;BME280;1551;51.046;7.010;2023-04-01T18:30:35;99591.50;;;11.52;95.43
3082;BME280;1551;51.046;7.010;2023-04-01T18:33:42;99585.81;;;11.44;95.50
3082;BME280;1551;51.046;7.010;2023-04-01T18:36:57;99589.28;;;11.41;95.90
3082;BME280;1551;51.046;7.010;2023-04-01T18:39:55;99591.41;;;11.55;95.62
3082;BME280;1551;51.046;7.010;2023-04-01T18:46:39;99605.59;;;11.39;95.49
3082;BME280;1551;51.046;7.010;2023-04-01T18:49:41;99613.41;;;11.34;95.64
3082;BME280;1551;51.046;7.010;2023-04-01T18:55:54;99617.84;;;11.29;96.04
3082;BME280;1551;51.046;7.010;2023-04-01T19:05:13;99635.91;;;11.25;96.00
3082;BME280;1551;51.046;7.010;2023-04-01T19:11:32;99640.38;;;11.18;97.08
3082;BME280;1551;51.046;7.010;2023-04-01T19:20:53;99652.28;;;11.19;97.17
3082;BME280;1551;51.046;7.010;2023-04-01T19:34:03;99656.69;;;11.14;97.47
3082;BME280;1551;51.046;7.010;2023-04-01T19:37:21;99654.91;;;11.18;96.97
3082;BME280;1551;51.046;7.010;2023-04-01T19:40:44;99662.72;;;11.13;97.50
3082;BME280;1551;51.046;7.010;2023-04-01T19:47:00;99656.88;;;11.08;97.40
3082;BME280;1551;51.046;7.010;2023-04-01T19:52:54;99664.50;;;11.11;97.59
3082;BME280;1551;51.046;7.010;2023-04-01T19:55:59;99674.81;;;11.08;96.88
3082;BME280;1551;51.046;7.010;2023-04-01T19:58:58;99683.41;;;11.05;97.71
3082;BME280;1551;51.046;7.010;2023-04-01T20:02:19;99678.34;;;11.04;97.03
3082;BME280;1551;51.046;7.010;2023-04-01T20:05:39;99684.19;;;11.07;97.56
3082;BME280;1551;51.046;7.010;2023-04-01T20:08:54;99692.66;;;11.11;97.00
3082;BME280;1551;51.046;7.010;2023-04-01T20:11:55;99682.03;;;10.94;97.05
3082;BME280;1551;51.046;7.010;2023-04-01T20:14:49;99687.16;;;10.94;97.75
3082;BME280;1551;51.046;7.010;2023-04-01T20:17:44;99698.25;;;10.93;97.77
3082;BME280;1551;51.046;7.010;2023-04-01T20:20:34;99711.16;;;10.90;97.19
3082;BME280;1551;51.046;7.010;2023-04-01T20:23:34;99708.56;;;10.91;97.68
3082;BME280;1551;51.046;7.010;2023-04-01T20:26:33;99708.44;;;10.96;98.08
3082;BME280;1551;51.046;7.010;2023-04-01T20:33:21;99713.78;;;10.87;97.63
3082;BME280;1551;51.046;7.010;2023-04-01T20:40:02;99728.31;;;10.86;97.97
3082;BME280;1551;51.046;7.010;2023-04-01T20:46:15;99729.09;;;10.90;97.96
3082;BME280;1551;51.046;7.010;2023-04-01T20:49:38;99744.38;;;10.91;97.95
3082;BME280;1551;51.046;7.010;2023-04-01T20:52:37;99741.94;;;10.87;98.30
3082;BME280;1551;51.046;7.010;2023-04-01T21:01:44;99755.22;;;11.01;97.59
3082;BME280;1551;51.046;7.010;2023-04-01T21:11:24;99748.66;;;10.91;97.98
3082;BME280;1551;51.046;7.010;2023-04-01T21:14:43;99761.13;;;11.03;97.69
3082;BME280;1551;51.046;7.010;2023-04-01T21:33:54;99772.13;;;11.06;97.73
3082;BME280;1551;51.046;7.010;2023-04-01T21:53:47;99798.44;;;11.13;97.38
3082;BME280;1551;51.046;7.010;2023-04-01T22:00:14;99801.34;;;11.30;97.28
3082;BME280;1551;51.046;7.010;2023-04-01T22:06:53;99806.34;;;11.35;97.39
3082;BME280;1551;51.046;7.010;2023-04-01T22:10:05;99821.16;;;11.25;97.11
3082;BME280;1551;51.046;7.010;2023-04-01T22:13:18;99821.25;;;11.21;97.60
3082;BME280;1551;51.046;7.010;2023-04-01T22:19:24;99821.84;;;11.32;97.52
3082;BME280;1551;51.046;7.010;2023-04-01T22:22:56;99825.78;;;11.43;97.79
3082;BME280;1551;51.046;7.010;2023-04-01T22:26:02;99829.88;;;11.49;97.20
3082;BME280;1551;51.046;7.010;2023-04-01T22:29:05;99841.63;;;11.57;97.51
3082;BME280;1551;51.046;7.010;2023-04-01T22:32:05;99842.22;;;11.65;97.90
3082;BME280;1551;51.046;7.010;2023-04-01T22:35:10;99845.59;;;11.69;96.95
3082;BME280;1551;51.046;7.010;2023-04-01T22:41:45;99844.47;;;11.78;95.66
3082;BME280;1551;51.046;7.010;2023-04-01T22:51:26;99860.13;;;11.67;95.12
3082;BME280;1551;51.046;7.010;2023-04-01T23:00:21;99869.53;;;11.66;95.68
3082;BME280;1551;51.046;7.010;2023-04-01T23:03:19;99873.88;;;11.64;95.84
3082;BME280;1551;51.046;7.010;2023-04-01T23:06:16;99877.22;;;11.66;95.74
3082;BME280;1551;51.046;7.010;2023-04-01T23:09:31;99874.03;;;11.58;95.62
3082;BME280;1551;51.046;7.010;2023-04-01T23:12:23;99886.81;;;11.60;96.31
3082;BME280;1551;51.046;7.010;2023-04-01T23:15:14;99894.41;;;11.63;96.23
3082;BME280;1551;51.046;7.010;2023-04-01T23:18:27;99897.72;;;11.68;95.76
3082;BME280;1551;51.046;7.010;2023-04-01T23:21:30;99903.69;;;11.68;95.98
3082;BME280;1551;51.046;7.010;2023-04-01T23:24:28;99916.31;;;11.74;95.99
3082;BME280;1551;51.046;7.010;2023-04-01T23:27:29;99924.00;;;11.76;95.34
3082;BME280;1551;51.046;7.010;2023-04-01T23:33:31;99930.78;;;11.79;95.04
3082;BME280;1551;51.046;7.010;2023-04-01T23:36:20;99939.25;;;11.81;94.76
3082;BME280;1551;51.046;7.010;2023-04-01T23:39:35;99956.41;;;11.79;94.51
3082;BME280;1551;51.046;7.010;2023-04-01T23:42:39;99948.91;;;11.71;94.91
3082;BME280;1551;51.046;7.010;2023-04-01T23:45:29;99963.44;;;11.72;94.63
3082;BME280;1551;51.046;7.010;2023-04-01T23:48:19;99960.88;;;11.70;94.60
3082;BME280;1551;51.046;7.010;2023-04-01T23:51:22;99972.69;;;11.76;94.75
3082;BME280;1551;51.046;7.010;2023-04-01T23:54:47;99982.06;;;11.77;94.86
3082;BME280;1551;51.046;7.010;2023-04-01T23:57:37;99973.63;;;11.73;94.99
